createdAt,value
2018-05-18T04:10:52.703Z,70.44
2018-05-18T04:11:18.290Z,70.72
2018-05-18T04:11:43.740Z,70.44
2018-05-18T04:12:09.168Z,70.15
2018-05-18T04:12:34.635Z,70.63
2018-05-18T04:13:00.079Z,70.15
2018-05-18T04:13:25.558Z,70.06
2018-05-18T04:13:50.987Z,70.44
2018-05-18T04:14:16.443Z,70.21
2018-05-18T04:14:41.875Z,70.31
2018-05-18T04:15:07.284Z,70.12
2018-05-18T04:15:32.785Z,70.53
2018-05-18T04:15:58.332Z,70.25
2018-05-18T04:16:23.811Z,70.21
2018-05-18T04:16:49.275Z,70.72
2018-05-18T04:17:14.736Z,70.5
2018-05-18T04:17:40.176Z,70.34
2018-05-18T04:18:05.727Z,70.5
2018-05-18T04:18:31.163Z,70.34
2018-05-18T04:18:56.668Z,70.44
2018-05-18T04:19:22.193Z,70.44
2018-05-18T04:19:47.855Z,70.44
2018-05-18T04:20:13.280Z,70.06
2018-05-18T04:20:38.710Z,70.82
2018-05-18T04:21:04.218Z,70.4
2018-05-18T04:21:29.684Z,70.4
2018-05-18T04:21:55.160Z,70.25
2018-05-18T04:22:20.712Z,70.25
2018-05-18T04:22:46.093Z,70.44
2018-05-18T04:23:11.582Z,70.12
2018-05-18T04:23:37.092Z,70.06
2018-05-18T04:24:02.661Z,70.15
2018-05-18T04:24:28.199Z,70.53
2018-05-18T04:24:53.692Z,70.21
2018-05-18T04:25:19.234Z,70.4
2018-05-18T04:25:44.772Z,70.82
2018-05-18T04:26:10.194Z,70.06
2018-05-18T04:26:35.671Z,70.34
2018-05-18T04:27:01.103Z,70.53
2018-05-18T04:27:26.637Z,70.15
2018-05-18T04:27:52.117Z,70.34
2018-05-18T04:28:17.639Z,70.25
2018-05-18T04:28:43.121Z,69.96
2018-05-18T04:29:08.559Z,70.15
2018-05-18T04:29:34.178Z,70.25
2018-05-18T04:29:59.609Z,70.25
2018-05-18T04:30:25.286Z,70.34
2018-05-18T04:30:50.784Z,70.63
2018-05-18T04:31:16.213Z,70.25
2018-05-18T04:31:41.839Z,70.34
2018-05-18T04:32:07.259Z,70.44
2018-05-18T04:32:32.699Z,70.53
2018-05-18T04:32:58.216Z,70.06
2018-05-18T04:33:23.701Z,69.96
2018-05-18T04:33:49.227Z,69.87
2018-05-18T04:34:14.643Z,70.34
2018-05-18T04:34:40.129Z,70.44
2018-05-18T04:35:06.024Z,70.34
2018-05-18T04:35:31.516Z,70.15
2018-05-18T04:35:56.953Z,70.15
2018-05-18T04:36:22.515Z,70.44
2018-05-18T04:36:47.947Z,70.34
2018-05-18T04:37:13.498Z,70.06
2018-05-18T04:37:39.200Z,70.15
2018-05-18T04:38:04.614Z,69.96
2018-05-18T04:38:30.125Z,69.96
2018-05-18T04:38:55.499Z,70.34
2018-05-18T04:39:21.274Z,70.34
2018-05-18T04:39:46.670Z,70.06
2018-05-18T04:40:12.171Z,69.96
2018-05-18T04:40:37.756Z,69.77
2018-05-18T04:41:03.413Z,70.53
2018-05-18T04:41:28.917Z,70.06
2018-05-18T04:41:54.486Z,69.87
2018-05-18T04:42:20.029Z,70.25
2018-05-18T04:42:45.528Z,69.48
2018-05-18T04:43:11.045Z,69.77
2018-05-18T04:43:36.501Z,69.58
2018-05-18T04:44:02.197Z,69.29
2018-05-18T04:44:27.541Z,69.58
2018-05-18T04:44:58.564Z,69.58
2018-05-18T04:45:23.471Z,69.58
2018-05-18T04:45:50.448Z,69.39
2018-05-18T04:47:54.662Z,69.48
2018-05-18T04:49:01.609Z,69.87
2018-05-18T04:49:32.725Z,70.06
2018-05-18T04:50:05.682Z,69.48
2018-05-18T04:50:31.315Z,69.77
2018-05-18T04:50:57.066Z,69.58
2018-05-18T04:51:22.512Z,70.34
2018-05-18T04:51:47.957Z,70.06
2018-05-18T04:52:13.338Z,69.68
2018-05-18T04:52:38.886Z,69.77
2018-05-18T04:53:04.663Z,69.58
2018-05-18T04:53:29.941Z,69.58
2018-05-18T04:53:57.524Z,69.68
2018-05-18T04:54:23.640Z,69.39
2018-05-18T04:54:52.384Z,69.77
2018-05-18T04:55:18.436Z,69.68
2018-05-18T04:56:37.347Z,69.01
2018-05-18T04:57:02.273Z,69.2
2018-05-18T04:57:28.479Z,69.29
2018-05-18T04:57:53.339Z,69.29
2018-05-18T04:58:19.177Z,68.72
2018-05-18T04:58:44.688Z,69.1
2018-05-18T04:59:09.936Z,69.2
2018-05-18T04:59:35.862Z,69.1
2018-05-18T05:00:01.480Z,68.63
2018-05-18T05:00:26.899Z,68.82
2018-05-18T05:00:52.449Z,69.2
2018-05-18T05:01:18.077Z,69.29
2018-05-18T05:01:43.686Z,68.91
2018-05-18T05:02:09.205Z,68.72
2018-05-18T05:02:34.848Z,69.1
2018-05-18T05:03:00.282Z,68.82
2018-05-18T05:03:25.892Z,69.1
2018-05-18T05:03:51.543Z,69.1
2018-05-18T05:04:18.110Z,69.39
2018-05-18T05:04:43.686Z,68.82
2018-05-18T05:05:09.314Z,68.63
2018-05-18T05:05:36.082Z,68.63
2018-05-18T05:06:01.901Z,68.72
2018-05-18T05:06:27.558Z,68.34
2018-05-18T05:06:53.611Z,67.58
2018-05-18T05:07:18.985Z,67.86
2018-05-18T05:07:44.969Z,68.05
2018-05-18T05:08:10.636Z,67.96
2018-05-18T05:08:36.336Z,67.77
2018-05-18T05:09:01.865Z,67.96
2018-05-18T05:09:28.362Z,67.58
2018-05-18T05:09:53.671Z,68.53
2018-05-18T05:10:19.545Z,68.24
2018-05-18T05:10:45.625Z,68.24
2018-05-18T05:11:12.490Z,68.44
2018-05-18T05:11:37.541Z,68.34
2018-05-18T05:12:03.308Z,67.68
2018-05-18T05:12:28.860Z,67.58
2018-05-18T05:12:54.442Z,68.05
2018-05-18T05:13:20.060Z,67.86
2018-05-18T05:13:45.590Z,67.68
2018-05-18T05:14:11.064Z,67.58
2018-05-18T05:14:36.520Z,67.48
2018-05-18T05:15:02.054Z,67.68
2018-05-18T05:15:27.542Z,67.58
2018-05-18T05:15:53.064Z,67.1
2018-05-18T05:16:18.577Z,67.77
2018-05-18T05:16:44.047Z,67.29
2018-05-18T05:17:09.577Z,67
2018-05-18T05:17:35.088Z,67.29
2018-05-18T05:18:00.593Z,67.1
2018-05-18T05:18:26.067Z,67.29
2018-05-18T05:18:51.423Z,67.29
2018-05-18T05:19:17.011Z,67.29
2018-05-18T05:19:42.449Z,67
2018-05-18T05:20:07.970Z,67.2
2018-05-18T05:20:33.469Z,67.1
2018-05-18T05:20:58.950Z,67
2018-05-18T05:21:24.474Z,67.48
2018-05-18T05:21:49.864Z,67.68
2018-05-18T05:22:15.366Z,67
2018-05-18T05:22:40.852Z,67.77
2018-05-18T05:23:06.530Z,67.29
2018-05-18T05:23:32.095Z,67
2018-05-18T05:23:57.680Z,67.1
2018-05-18T05:24:23.312Z,67.29
2018-05-18T05:24:49.036Z,66.91
2018-05-18T05:25:14.771Z,67
2018-05-18T05:25:40.278Z,67.1
2018-05-18T05:26:05.729Z,66.91
2018-05-18T05:26:31.261Z,67.2
2018-05-18T05:26:56.681Z,67.2
2018-05-18T05:27:22.249Z,67.1
2018-05-18T05:27:48.486Z,67
2018-05-18T05:28:14.290Z,67.04
2018-05-18T05:28:41.073Z,67.04
2018-05-18T05:29:06.878Z,67.23
2018-05-18T05:29:32.668Z,66.94
2018-05-18T05:29:58.202Z,66.91
2018-05-18T05:30:23.718Z,67.42
2018-05-18T05:30:49.209Z,66.94
2018-05-18T05:31:14.929Z,67.33
2018-05-18T05:31:40.679Z,66.94
2018-05-18T05:32:06.850Z,67.33
2018-05-18T05:32:32.447Z,66.94
2018-05-18T05:33:00.290Z,67.23
